sensor_id;sensor_type;location;lat;lon;timestamp;P1;durP1;ratioP1;P2;durP2;ratioP2
41631;SDS011;37452;51.938;4.624;2023-08-01T00:01:42;9.13;;;2.00;;
41631;SDS011;37452;51.938;4.624;2023-08-01T00:04:07;7.38;;;2.03;;
41631;SDS011;37452;51.938;4.624;2023-08-01T00:06:33;12.70;;;2.30;;
41631;SDS011;37452;51.938;4.624;2023-08-01T00:08:58;10.38;;;2.20;;
41631;SDS011;37452;51.938;4.624;2023-08-01T00:11:23;9.30;;;2.53;;
41631;SDS011;37452;51.938;4.624;2023-08-01T00:13:49;8.90;;;2.20;;
41631;SDS011;37452;51.938;4.624;2023-08-01T00:16:14;9.65;;;1.67;;
41631;SDS011;37452;51.938;4.624;2023-08-01T00:18:39;4.93;;;2.00;;
41631;SDS011;37452;51.938;4.624;2023-08-01T00:21:04;10.63;;;2.30;;
41631;SDS011;37452;51.938;4.624;2023-08-01T00:23:33;7.30;;;2.45;;
41631;SDS011;37452;51.938;4.624;2023-08-01T00:25:59;7.18;;;2.00;;
41631;SDS011;37452;51.938;4.624;2023-08-01T00:28:24;6.82;;;2.30;;
41631;SDS011;37452;51.938;4.624;2023-08-01T00:31:00;8.88;;;2.53;;
41631;SDS011;37452;51.938;4.624;2023-08-01T00:33:34;8.20;;;2.00;;
41631;SDS011;37452;51.938;4.624;2023-08-01T00:36:00;7.38;;;2.15;;
41631;SDS011;37452;51.938;4.624;2023-08-01T00:38:26;4.43;;;2.08;;
41631;SDS011;37452;51.938;4.624;2023-08-01T00:40:52;7.75;;;2.10;;
41631;SDS011;37452;51.938;4.624;2023-08-01T00:43:17;7.95;;;2.22;;
41631;SDS011;37452;51.938;4.624;2023-08-01T00:45:43;5.13;;;1.98;;
41631;SDS011;37452;51.938;4.624;2023-08-01T00:48:09;6.13;;;2.25;;
41631;SDS011;37452;51.938;4.624;2023-08-01T00:50:35;10.18;;;2.40;;
41631;SDS011;37452;51.938;4.624;2023-08-01T00:53:00;6.90;;;2.20;;
41631;SDS011;37452;51.938;4.624;2023-08-01T00:55:26;8.20;;;2.55;;
41631;SDS011;37452;51.938;4.624;2023-08-01T00:57:54;9.73;;;2.88;;
41631;SDS011;37452;51.938;4.624;2023-08-01T01:00:19;6.75;;;2.17;;
41631;SDS011;37452;51.938;4.624;2023-08-01T01:02:45;7.80;;;2.40;;
41631;SDS011;37452;51.938;4.624;2023-08-01T01:05:11;9.13;;;2.75;;
41631;SDS011;37452;51.938;4.624;2023-08-01T01:07:38;5.15;;;1.67;;
41631;SDS011;37452;51.938;4.624;2023-08-01T01:10:04;9.23;;;2.70;;
41631;SDS011;37452;51.938;4.624;2023-08-01T01:12:30;12.73;;;2.90;;
41631;SDS011;37452;51.938;4.624;2023-08-01T01:14:55;8.75;;;2.35;;
41631;SDS011;37452;51.938;4.624;2023-08-01T01:17:20;9.57;;;2.53;;
41631;SDS011;37452;51.938;4.624;2023-08-01T01:19:46;11.02;;;2.75;;
41631;SDS011;37452;51.938;4.624;2023-08-01T01:22:11;6.10;;;2.28;;
41631;SDS011;37452;51.938;4.624;2023-08-01T01:24:37;5.28;;;2.17;;
41631;SDS011;37452;51.938;4.624;2023-08-01T01:27:06;8.93;;;2.10;;
41631;SDS011;37452;51.938;4.624;2023-08-01T01:29:33;8.60;;;2.47;;
41631;SDS011;37452;51.938;4.624;2023-08-01T01:32:00;9.30;;;2.50;;
41631;SDS011;37452;51.938;4.624;2023-08-01T01:34:26;10.27;;;2.58;;
41631;SDS011;37452;51.938;4.624;2023-08-01T01:36:52;11.27;;;2.42;;
41631;SDS011;37452;51.938;4.624;2023-08-01T01:39:18;5.15;;;2.30;;
41631;SDS011;37452;51.938;4.624;2023-08-01T01:41:43;10.73;;;2.55;;
41631;SDS011;37452;51.938;4.624;2023-08-01T01:44:09;7.22;;;2.17;;
41631;SDS011;37452;51.938;4.624;2023-08-01T01:46:34;11.02;;;2.55;;
41631;SDS011;37452;51.938;4.624;2023-08-01T01:48:59;6.57;;;2.20;;
41631;SDS011;37452;51.938;4.624;2023-08-01T01:51:25;11.70;;;2.63;;
41631;SDS011;37452;51.938;4.624;2023-08-01T01:53:51;7.60;;;2.22;;
41631;SDS011;37452;51.938;4.624;2023-08-01T01:56:17;6.93;;;2.28;;
41631;SDS011;37452;51.938;4.624;2023-08-01T01:58:42;6.55;;;2.83;;
41631;SDS011;37452;51.938;4.624;2023-08-01T02:01:08;12.95;;;3.17;;
41631;SDS011;37452;51.938;4.624;2023-08-01T02:03:33;7.53;;;2.35;;
41631;SDS011;37452;51.938;4.624;2023-08-01T02:05:58;8.30;;;2.40;;
41631;SDS011;37452;51.938;4.624;2023-08-01T02:08:24;8.02;;;2.03;;
41631;SDS011;37452;51.938;4.624;2023-08-01T02:10:49;9.57;;;2.17;;
41631;SDS011;37452;51.938;4.624;2023-08-01T02:13:14;10.25;;;3.17;;
41631;SDS011;37452;51.938;4.624;2023-08-01T02:15:40;11.85;;;2.88;;
41631;SDS011;37452;51.938;4.624;2023-08-01T02:18:05;7.35;;;2.40;;
41631;SDS011;37452;51.938;4.624;2023-08-01T02:20:30;10.07;;;3.30;;
41631;SDS011;37452;51.938;4.624;2023-08-01T02:22:56;6.85;;;2.38;;
41631;SDS011;37452;51.938;4.624;2023-08-01T02:25:22;10.38;;;3.10;;
41631;SDS011;37452;51.938;4.624;2023-08-01T02:27:47;9.25;;;2.28;;
41631;SDS011;37452;51.938;4.624;2023-08-01T02:30:12;8.40;;;2.72;;
41631;SDS011;37452;51.938;4.624;2023-08-01T02:32:38;11.68;;;3.28;;
41631;SDS011;37452;51.938;4.624;2023-08-01T02:35:03;12.10;;;2.65;;
41631;SDS011;37452;51.938;4.624;2023-08-01T02:37:29;6.47;;;2.65;;
41631;SDS011;37452;51.938;4.624;2023-08-01T02:39:55;10.52;;;2.92;;
41631;SDS011;37452;51.938;4.624;2023-08-01T02:42:20;9.15;;;3.30;;
41631;SDS011;37452;51.938;4.624;2023-08-01T02:44:45;13.13;;;3.30;;
41631;SDS011;37452;51.938;4.624;2023-08-01T02:47:11;6.13;;;2.95;;
41631;SDS011;37452;51.938;4.624;2023-08-01T02:49:36;13.20;;;3.08;;
41631;SDS011;37452;51.938;4.624;2023-08-01T02:52:01;8.88;;;2.90;;
41631;SDS011;37452;51.938;4.624;2023-08-01T02:54:27;10.68;;;2.75;;
41631;SDS011;37452;51.938;4.624;2023-08-01T02:56:52;11.13;;;2.85;;
41631;SDS011;37452;51.938;4.624;2023-08-01T02:59:17;5.72;;;3.10;;
41631;SDS011;37452;51.938;4.624;2023-08-01T03:01:43;13.43;;;3.20;;
41631;SDS011;37452;51.938;4.624;2023-08-01T03:04:09;8.35;;;3.03;;
41631;SDS011;37452;51.938;4.624;2023-08-01T03:06:36;14.48;;;3.47;;
41631;SDS011;37452;51.938;4.624;2023-08-01T03:09:02;9.93;;;3.20;;
41631;SDS011;37452;51.938;4.624;2023-08-01T03:11:28;7.43;;;2.67;;
41631;SDS011;37452;51.938;4.624;2023-08-01T03:13:54;8.35;;;2.60;;
41631;SDS011;37452;51.938;4.624;2023-08-01T03:16:19;10.10;;;3.08;;
41631;SDS011;37452;51.938;4.624;2023-08-01T03:18:45;8.82;;;3.17;;
41631;SDS011;37452;51.938;4.624;2023-08-01T03:21:10;9.20;;;3.00;;
41631;SDS011;37452;51.938;4.624;2023-08-01T03:23:36;11.80;;;3.90;;
41631;SDS011;37452;51.938;4.624;2023-08-01T03:26:01;11.70;;;3.47;;
41631;SDS011;37452;51.938;4.624;2023-08-01T03:28:27;9.32;;;2.75;;
41631;SDS011;37452;51.938;4.624;2023-08-01T03:30:52;12.27;;;3.55;;
41631;SDS011;37452;51.938;4.624;2023-08-01T03:33:19;7.13;;;3.20;;
41631;SDS011;37452;51.938;4.624;2023-08-01T03:35:45;13.27;;;3.53;;
41631;SDS011;37452;51.938;4.624;2023-08-01T03:38:10;11.75;;;3.08;;
41631;SDS011;37452;51.938;4.624;2023-08-01T03:40:36;14.15;;;3.95;;
41631;SDS011;37452;51.938;4.624;2023-08-01T03:43:01;8.05;;;3.00;;
41631;SDS011;37452;51.938;4.624;2023-08-01T03:45:27;12.60;;;4.25;;
41631;SDS011;37452;51.938;4.624;2023-08-01T03:47:52;14.68;;;3.75;;
41631;SDS011;37452;51.938;4.624;2023-08-01T03:50:17;14.77;;;3.97;;
41631;SDS011;37452;51.938;4.624;2023-08-01T03:52:43;15.23;;;3.95;;
41631;SDS011;37452;51.938;4.624;2023-08-01T03:55:08;10.82;;;4.00;;
41631;SDS011;37452;51.938;4.624;2023-08-01T03:57:34;10.45;;;3.60;;
41631;SDS011;37452;51.938;4.624;2023-08-01T04:00:00;13.32;;;3.30;;
41631;SDS011;37452;51.938;4.624;2023-08-01T04:02:25;12.85;;;3.65;;
41631;SDS011;37452;51.938;4.624;2023-08-01T04:04:50;17.35;;;3.38;;
41631;SDS011;37452;51.938;4.624;2023-08-01T04:07:16;15.77;;;3.83;;
41631;SDS011;37452;51.938;4.624;2023-08-01T04:09:41;9.25;;;3.00;;
41631;SDS011;37452;51.938;4.624;2023-08-01T04:12:07;6.22;;;2.58;;
41631;SDS011;37452;51.938;4.624;2023-08-01T04:14:33;8.65;;;3.30;;
41631;SDS011;37452;51.938;4.624;2023-08-01T04:16:59;9.27;;;3.13;;
41631;SDS011;37452;51.938;4.624;2023-08-01T04:19:24;13.13;;;2.72;;
41631;SDS011;37452;51.938;4.624;2023-08-01T04:21:50;10.05;;;3.20;;
41631;SDS011;37452;51.938;4.624;2023-08-01T04:24:15;7.78;;;2.28;;
41631;SDS011;37452;51.938;4.624;2023-08-01T04:26:41;10.20;;;3.25;;
41631;SDS011;37452;51.938;4.624;2023-08-01T04:29:06;7.95;;;3.33;;
41631;SDS011;37452;51.938;4.624;2023-08-01T04:31:31;7.53;;;3.25;;
41631;SDS011;37452;51.938;4.624;2023-08-01T04:33:57;12.95;;;3.17;;
41631;SDS011;37452;51.938;4.624;2023-08-01T04:36:22;14.38;;;2.85;;
41631;SDS011;37452;51.938;4.624;2023-08-01T04:38:48;10.90;;;2.90;;
41631;SDS011;37452;51.938;4.624;2023-08-01T04:41:13;10.77;;;3.03;;
41631;SDS011;37452;51.938;4.624;2023-08-01T04:43:38;11.82;;;3.05;;
41631;SDS011;37452;51.938;4.624;2023-08-01T04:46:04;11.70;;;2.97;;
41631;SDS011;37452;51.938;4.624;2023-08-01T04:48:29;11.80;;;2.85;;
41631;SDS011;37452;51.938;4.624;2023-08-01T04:50:54;7.97;;;2.47;;
41631;SDS011;37452;51.938;4.624;2023-08-01T04:53:20;12.07;;;2.88;;
41631;SDS011;37452;51.938;4.624;2023-08-01T04:55:45;9.77;;;2.85;;
41631;SDS011;37452;51.938;4.624;2023-08-01T04:58:10;6.63;;;2.50;;
41631;SDS011;37452;51.938;4.624;2023-08-01T05:00:36;15.48;;;2.83;;
41631;SDS011;37452;51.938;4.624;2023-08-01T05:03:02;10.00;;;2.58;;
41631;SDS011;37452;51.938;4.624;2023-08-01T05:05:27;9.98;;;2.63;;
41631;SDS011;37452;51.938;4.624;2023-08-01T05:07:53;6.22;;;2.70;;
41631;SDS011;37452;51.938;4.624;2023-08-01T05:10:18;6.68;;;2.25;;
41631;SDS011;37452;51.938;4.624;2023-08-01T05:12:43;8.32;;;2.55;;
41631;SDS011;37452;51.938;4.624;2023-08-01T05:15:09;10.70;;;2.47;;
41631;SDS011;37452;51.938;4.624;2023-08-01T05:17:34;9.30;;;2.55;;
41631;SDS011;37452;51.938;4.624;2023-08-01T05:20:00;7.80;;;2.65;;
41631;SDS011;37452;51.938;4.624;2023-08-01T05:22:25;8.95;;;2.92;;
41631;SDS011;37452;51.938;4.624;2023-08-01T05:24:51;8.57;;;2.92;;
41631;SDS011;37452;51.938;4.624;2023-08-01T05:27:16;6.95;;;2.70;;
41631;SDS011;37452;51.938;4.624;2023-08-01T05:29:42;8.68;;;2.55;;
41631;SDS011;37452;51.938;4.624;2023-08-01T05:32:07;9.80;;;2.35;;
41631;SDS011;37452;51.938;4.624;2023-08-01T05:34:33;8.00;;;2.05;;
41631;SDS011;37452;51.938;4.624;2023-08-01T05:36:58;11.02;;;2.22;;
41631;SDS011;37452;51.938;4.624;2023-08-01T05:39:23;9.50;;;2.50;;
41631;SDS011;37452;51.938;4.624;2023-08-01T05:41:49;8.65;;;2.40;;
41631;SDS011;37452;51.938;4.624;2023-08-01T05:44:15;8.65;;;2.17;;
41631;SDS011;37452;51.938;4.624;2023-08-01T05:46:42;11.15;;;2.30;;
41631;SDS011;37452;51.938;4.624;2023-08-01T05:49:07;8.50;;;2.53;;
41631;SDS011;37452;51.938;4.624;2023-08-01T05:51:32;10.57;;;2.63;;
41631;SDS011;37452;51.938;4.624;2023-08-01T05:53:58;8.23;;;2.00;;
41631;SDS011;37452;51.938;4.624;2023-08-01T05:56:23;7.25;;;2.47;;
41631;SDS011;37452;51.938;4.624;2023-08-01T05:58:48;8.23;;;2.50;;
41631;SDS011;37452;51.938;4.624;2023-08-01T06:01:15;10.07;;;2.10;;
41631;SDS011;37452;51.938;4.624;2023-08-01T06:03:41;10.95;;;2.63;;
41631;SDS011;37452;51.938;4.624;2023-08-01T06:06:07;8.18;;;2.35;;
41631;SDS011;37452;51.938;4.624;2023-08-01T06:08:33;9.40;;;2.50;;
41631;SDS011;37452;51.938;4.624;2023-08-01T06:10:58;7.78;;;1.95;;
41631;SDS011;37452;51.938;4.624;2023-08-01T06:13:23;10.65;;;2.50;;
41631;SDS011;37452;51.938;4.624;2023-08-01T06:15:49;8.43;;;2.53;;
41631;SDS011;37452;51.938;4.624;2023-08-01T06:18:14;8.90;;;2.17;;
41631;SDS011;37452;51.938;4.624;2023-08-01T06:20:40;12.02;;;2.25;;
41631;SDS011;37452;51.938;4.624;2023-08-01T06:23:05;15.43;;;3.08;;
41631;SDS011;37452;51.938;4.624;2023-08-01T06:25:30;6.40;;;2.47;;
41631;SDS011;37452;51.938;4.624;2023-08-01T06:27:56;12.38;;;2.92;;
41631;SDS011;37452;51.938;4.624;2023-08-01T06:30:21;11.18;;;3.10;;
41631;SDS011;37452;51.938;4.624;2023-08-01T06:32:46;8.02;;;2.20;;
41631;SDS011;37452;51.938;4.624;2023-08-01T06:35:12;11.18;;;2.38;;
41631;SDS011;37452;51.938;4.624;2023-08-01T06:37:37;6.95;;;2.35;;
41631;SDS011;37452;51.938;4.624;2023-08-01T06:40:03;5.13;;;1.83;;
41631;SDS011;37452;51.938;4.624;2023-08-01T06:42:29;10.57;;;2.83;;
41631;SDS011;37452;51.938;4.624;2023-08-01T06:44:54;8.68;;;2.75;;
41631;SDS011;37452;51.938;4.624;2023-08-01T06:47:20;7.80;;;2.13;;
41631;SDS011;37452;51.938;4.624;2023-08-01T06:49:45;7.30;;;2.00;;
41631;SDS011;37452;51.938;4.624;2023-08-01T06:52:10;9.95;;;2.63;;
41631;SDS011;37452;51.938;4.624;2023-08-01T06:54:36;8.82;;;2.53;;
41631;SDS011;37452;51.938;4.624;2023-08-01T06:57:01;6.78;;;2.50;;
41631;SDS011;37452;51.938;4.624;2023-08-01T06:59:27;12.52;;;2.70;;
41631;SDS011;37452;51.938;4.624;2023-08-01T07:01:52;9.15;;;2.28;;
41631;SDS011;37452;51.938;4.624;2023-08-01T07:04:17;7.80;;;2.30;;
41631;SDS011;37452;51.938;4.624;2023-08-01T07:06:43;7.30;;;2.03;;
41631;SDS011;37452;51.938;4.624;2023-08-01T07:09:08;6.03;;;1.70;;
41631;SDS011;37452;51.938;4.624;2023-08-01T07:11:35;6.85;;;1.98;;
41631;SDS011;37452;51.938;4.624;2023-08-01T07:14:00;8.07;;;2.28;;
41631;SDS011;37452;51.938;4.624;2023-08-01T07:16:25;5.35;;;2.17;;
41631;SDS011;37452;51.938;4.624;2023-08-01T07:18:51;11.63;;;2.67;;
41631;SDS011;37452;51.938;4.624;2023-08-01T07:21:16;8.05;;;2.25;;
41631;SDS011;37452;51.938;4.624;2023-08-01T07:23:42;10.98;;;2.92;;
41631;SDS011;37452;51.938;4.624;2023-08-01T07:26:08;6.47;;;2.15;;
41631;SDS011;37452;51.938;4.624;2023-08-01T07:28:33;6.50;;;2.53;;
41631;SDS011;37452;51.938;4.624;2023-08-01T07:31:00;11.15;;;2.03;;
41631;SDS011;37452;51.938;4.624;2023-08-01T07:33:25;11.15;;;1.65;;
41631;SDS011;37452;51.938;4.624;2023-08-01T07:35:50;7.88;;;1.85;;
41631;SDS011;37452;51.938;4.624;2023-08-01T07:38:16;9.63;;;2.58;;
41631;SDS011;37452;51.938;4.624;2023-08-01T07:40:42;5.05;;;1.50;;
41631;SDS011;37452;51.938;4.624;2023-08-01T07:43:07;13.15;;;2.70;;
41631;SDS011;37452;51.938;4.624;2023-08-01T07:45:33;14.48;;;3.65;;
41631;SDS011;37452;51.938;4.624;2023-08-01T07:47:59;5.00;;;2.10;;
41631;SDS011;37452;51.938;4.624;2023-08-01T07:50:25;6.00;;;1.75;;
41631;SDS011;37452;51.938;4.624;2023-08-01T07:52:51;7.05;;;2.58;;
41631;SDS011;37452;51.938;4.624;2023-08-01T07:55:16;7.80;;;1.80;;
41631;SDS011;37452;51.938;4.624;2023-08-01T07:57:43;7.85;;;1.83;;
41631;SDS011;37452;51.938;4.624;2023-08-01T08:00:09;5.22;;;2.00;;
41631;SDS011;37452;51.938;4.624;2023-08-01T08:02:35;5.63;;;1.80;;
41631;SDS011;37452;51.938;4.624;2023-08-01T08:05:00;8.73;;;1.90;;
41631;SDS011;37452;51.938;4.624;2023-08-01T08:07:26;6.80;;;2.10;;
41631;SDS011;37452;51.938;4.624;2023-08-01T08:09:51;4.20;;;1.50;;
41631;SDS011;37452;51.938;4.624;2023-08-01T08:12:16;6.88;;;1.83;;
41631;SDS011;37452;51.938;4.624;2023-08-01T08:14:42;8.25;;;1.50;;
41631;SDS011;37452;51.938;4.624;2023-08-01T08:17:07;5.68;;;1.90;;
41631;SDS011;37452;51.938;4.624;2023-08-01T08:19:32;6.70;;;1.80;;
41631;SDS011;37452;51.938;4.624;2023-08-01T08:21:58;6.53;;;1.80;;
41631;SDS011;37452;51.938;4.624;2023-08-01T08:24:23;3.80;;;1.40;;
41631;SDS011;37452;51.938;4.624;2023-08-01T08:26:48;5.95;;;2.17;;
41631;SDS011;37452;51.938;4.624;2023-08-01T08:29:14;3.75;;;1.35;;
41631;SDS011;37452;51.938;4.624;2023-08-01T08:31:39;6.35;;;1.48;;
41631;SDS011;37452;51.938;4.624;2023-08-01T08:34:04;8.10;;;1.60;;
41631;SDS011;37452;51.938;4.624;2023-08-01T08:36:30;4.72;;;1.38;;
41631;SDS011;37452;51.938;4.624;2023-08-01T08:38:55;6.80;;;2.00;;
41631;SDS011;37452;51.938;4.624;2023-08-01T08:41:21;4.35;;;1.55;;
41631;SDS011;37452;51.938;4.624;2023-08-01T08:43:49;6.32;;;1.73;;
41631;SDS011;37452;51.938;4.624;2023-08-01T08:46:20;7.95;;;2.17;;
41631;SDS011;37452;51.938;4.624;2023-08-01T08:48:50;9.98;;;2.28;;
41631;SDS011;37452;51.938;4.624;2023-08-01T08:51:15;7.05;;;1.80;;
41631;SDS011;37452;51.938;4.624;2023-08-01T08:53:42;8.95;;;2.20;;
41631;SDS011;37452;51.938;4.624;2023-08-01T08:56:10;5.45;;;1.75;;
41631;SDS011;37452;51.938;4.624;2023-08-01T08:58:36;8.35;;;1.95;;
41631;SDS011;37452;51.938;4.624;2023-08-01T09:01:05;6.82;;;1.70;;
41631;SDS011;37452;51.938;4.624;2023-08-01T09:03:32;9.80;;;1.90;;
41631;SDS011;37452;51.938;4.624;2023-08-01T09:06:09;7.03;;;1.67;;
41631;SDS011;37452;51.938;4.624;2023-08-01T09:08:39;6.95;;;1.83;;
41631;SDS011;37452;51.938;4.624;2023-08-01T09:11:06;6.05;;;1.58;;
41631;SDS011;37452;51.938;4.624;2023-08-01T09:13:31;12.75;;;2.15;;
41631;SDS011;37452;51.938;4.624;2023-08-01T09:15:57;6.22;;;2.13;;
41631;SDS011;37452;51.938;4.624;2023-08-01T09:18:22;6.57;;;2.00;;
41631;SDS011;37452;51.938;4.624;2023-08-01T09:20:48;5.75;;;1.75;;
41631;SDS011;37452;51.938;4.624;2023-08-01T09:23:15;5.47;;;2.20;;
41631;SDS011;37452;51.938;4.624;2023-08-01T09:25:42;12.15;;;2.08;;
41631;SDS011;37452;51.938;4.624;2023-08-01T09:28:18;9.98;;;2.08;;
41631;SDS011;37452;51.938;4.624;2023-08-01T09:30:54;8.43;;;1.83;;
41631;SDS011;37452;51.938;4.624;2023-08-01T09:33:20;10.27;;;2.10;;
41631;SDS011;37452;51.938;4.624;2023-08-01T09:35:49;7.95;;;2.08;;
41631;SDS011;37452;51.938;4.624;2023-08-01T09:38:15;7.90;;;1.92;;
41631;SDS011;37452;51.938;4.624;2023-08-01T09:40:41;6.55;;;1.80;;
41631;SDS011;37452;51.938;4.624;2023-08-01T09:43:09;5.82;;;1.80;;
41631;SDS011;37452;51.938;4.624;2023-08-01T09:45:35;7.40;;;1.58;;
41631;SDS011;37452;51.938;4.624;2023-08-01T09:48:00;6.85;;;1.70;;
41631;SDS011;37452;51.938;4.624;2023-08-01T09:50:26;5.93;;;1.98;;
41631;SDS011;37452;51.938;4.624;2023-08-01T09:52:51;9.30;;;1.70;;
41631;SDS011;37452;51.938;4.624;2023-08-01T09:55:35;9.40;;;2.03;;
41631;SDS011;37452;51.938;4.624;2023-08-01T09:58:02;12.68;;;1.88;;
41631;SDS011;37452;51.938;4.624;2023-08-01T10:00:29;42.42;;;6.05;;
41631;SDS011;37452;51.938;4.624;2023-08-01T10:02:58;7.40;;;1.80;;
41631;SDS011;37452;51.938;4.624;2023-08-01T10:05:30;5.97;;;1.50;;
41631;SDS011;37452;51.938;4.624;2023-08-01T10:08:00;6.07;;;1.63;;
41631;SDS011;37452;51.938;4.624;2023-08-01T10:10:27;10.13;;;1.65;;
41631;SDS011;37452;51.938;4.624;2023-08-01T10:12:54;6.57;;;1.45;;
41631;SDS011;37452;51.938;4.624;2023-08-01T10:15:21;6.85;;;1.33;;
41631;SDS011;37452;51.938;4.624;2023-08-01T10:17:46;5.28;;;1.50;;
41631;SDS011;37452;51.938;4.624;2023-08-01T10:20:12;7.70;;;1.38;;
41631;SDS011;37452;51.938;4.624;2023-08-01T10:22:39;7.65;;;1.15;;
41631;SDS011;37452;51.938;4.624;2023-08-01T10:25:06;5.90;;;1.35;;
41631;SDS011;37452;51.938;4.624;2023-08-01T10:27:33;7.32;;;1.55;;
41631;SDS011;37452;51.938;4.624;2023-08-01T10:30:01;7.90;;;1.65;;
41631;SDS011;37452;51.938;4.624;2023-08-01T10:32:32;6.50;;;1.48;;
41631;SDS011;37452;51.938;4.624;2023-08-01T10:35:02;11.27;;;1.60;;
41631;SDS011;37452;51.938;4.624;2023-08-01T10:37:43;6.40;;;1.50;;
41631;SDS011;37452;51.938;4.624;2023-08-01T10:40:12;4.20;;;1.30;;
41631;SDS011;37452;51.938;4.624;2023-08-01T10:42:41;10.43;;;1.50;;
41631;SDS011;37452;51.938;4.624;2023-08-01T10:45:18;9.40;;;1.52;;
41631;SDS011;37452;51.938;4.624;2023-08-01T10:47:45;3.53;;;1.55;;
41631;SDS011;37452;51.938;4.624;2023-08-01T10:50:17;6.85;;;1.23;;
41631;SDS011;37452;51.938;4.624;2023-08-01T10:52:43;9.13;;;1.63;;
41631;SDS011;37452;51.938;4.624;2023-08-01T10:55:08;5.57;;;1.85;;
41631;SDS011;37452;51.938;4.624;2023-08-01T10:57:36;5.55;;;1.73;;
41631;SDS011;37452;51.938;4.624;2023-08-01T11:00:04;4.93;;;1.33;;
41631;SDS011;37452;51.938;4.624;2023-08-01T11:02:34;8.73;;;1.60;;
41631;SDS011;37452;51.938;4.624;2023-08-01T11:05:04;3.53;;;1.23;;
41631;SDS011;37452;51.938;4.624;2023-08-01T11:07:31;8.13;;;1.67;;
41631;SDS011;37452;51.938;4.624;2023-08-01T11:10:09;7.88;;;1.40;;
41631;SDS011;37452;51.938;4.624;2023-08-01T11:12:36;4.95;;;1.75;;
41631;SDS011;37452;51.938;4.624;2023-08-01T11:15:05;7.25;;;2.05;;
41631;SDS011;37452;51.938;4.624;2023-08-01T11:17:33;13.57;;;2.00;;
41631;SDS011;37452;51.938;4.624;2023-08-01T11:20:05;6.70;;;1.50;;
41631;SDS011;37452;51.938;4.624;2023-08-01T11:22:33;9.13;;;1.30;;
41631;SDS011;37452;51.938;4.624;2023-08-01T11:24:59;6.72;;;1.70;;
41631;SDS011;37452;51.938;4.624;2023-08-01T11:27:25;9.63;;;1.75;;
41631;SDS011;37452;51.938;4.624;2023-08-01T11:29:51;7.57;;;1.60;;
41631;SDS011;37452;51.938;4.624;2023-08-01T11:32:18;6.78;;;1.55;;
41631;SDS011;37452;51.938;4.624;2023-08-01T11:34:45;7.97;;;1.60;;
41631;SDS011;37452;51.938;4.624;2023-08-01T11:37:11;5.68;;;1.48;;
41631;SDS011;37452;51.938;4.624;2023-08-01T11:39:38;7.15;;;1.20;;
41631;SDS011;37452;51.938;4.624;2023-08-01T11:42:04;7.80;;;1.30;;
41631;SDS011;37452;51.938;4.624;2023-08-01T11:44:30;9.18;;;1.88;;
41631;SDS011;37452;51.938;4.624;2023-08-01T11:46:55;6.97;;;1.55;;
41631;SDS011;37452;51.938;4.624;2023-08-01T11:49:21;8.25;;;1.67;;
41631;SDS011;37452;51.938;4.624;2023-08-01T11:51:49;7.38;;;1.40;;
41631;SDS011;37452;51.938;4.624;2023-08-01T11:54:14;6.22;;;1.38;;
41631;SDS011;37452;51.938;4.624;2023-08-01T11:56:40;6.22;;;1.45;;
41631;SDS011;37452;51.938;4.624;2023-08-01T11:59:07;9.30;;;1.23;;
41631;SDS011;37452;51.938;4.624;2023-08-01T12:01:40;8.05;;;1.40;;
41631;SDS011;37452;51.938;4.624;2023-08-01T12:04:07;5.25;;;1.70;;
41631;SDS011;37452;51.938;4.624;2023-08-01T12:06:34;8.32;;;1.60;;
41631;SDS011;37452;51.938;4.624;2023-08-01T12:09:09;3.90;;;1.30;;
41631;SDS011;37452;51.938;4.624;2023-08-01T12:11:36;5.10;;;1.10;;
41631;SDS011;37452;51.938;4.624;2023-08-01T12:14:14;7.63;;;1.58;;
41631;SDS011;37452;51.938;4.624;2023-08-01T12:16:41;6.80;;;1.73;;
41631;SDS011;37452;51.938;4.624;2023-08-01T12:19:07;3.97;;;1.05;;
41631;SDS011;37452;51.938;4.624;2023-08-01T12:21:33;6.47;;;1.27;;
41631;SDS011;37452;51.938;4.624;2023-08-01T12:23:59;5.32;;;1.30;;
41631;SDS011;37452;51.938;4.624;2023-08-01T12:26:25;9.55;;;1.83;;
41631;SDS011;37452;51.938;4.624;2023-08-01T12:28:51;4.35;;;1.13;;
41631;SDS011;37452;51.938;4.624;2023-08-01T12:31:16;6.68;;;1.30;;
41631;SDS011;37452;51.938;4.624;2023-08-01T12:33:43;5.05;;;1.75;;
41631;SDS011;37452;51.938;4.624;2023-08-01T12:36:09;8.20;;;0.98;;
41631;SDS011;37452;51.938;4.624;2023-08-01T12:38:34;8.50;;;1.15;;
41631;SDS011;37452;51.938;4.624;2023-08-01T12:41:00;5.72;;;1.20;;
41631;SDS011;37452;51.938;4.624;2023-08-01T12:43:26;9.23;;;1.00;;
41631;SDS011;37452;51.938;4.624;2023-08-01T12:45:52;8.48;;;1.50;;
41631;SDS011;37452;51.938;4.624;2023-08-01T12:48:17;9.55;;;1.10;;
41631;SDS011;37452;51.938;4.624;2023-08-01T12:50:43;5.15;;;1.00;;
41631;SDS011;37452;51.938;4.624;2023-08-01T12:53:11;6.55;;;1.48;;
41631;SDS011;37452;51.938;4.624;2023-08-01T12:55:38;4.80;;;1.58;;
41631;SDS011;37452;51.938;4.624;2023-08-01T12:58:03;4.70;;;1.17;;
41631;SDS011;37452;51.938;4.624;2023-08-01T13:00:29;7.38;;;1.38;;
41631;SDS011;37452;51.938;4.624;2023-08-01T13:02:55;4.88;;;1.20;;
41631;SDS011;37452;51.938;4.624;2023-08-01T13:05:20;6.78;;;1.27;;
41631;SDS011;37452;51.938;4.624;2023-08-01T13:07:46;8.35;;;1.70;;
41631;SDS011;37452;51.938;4.624;2023-08-01T13:10:11;9.05;;;1.77;;
41631;SDS011;37452;51.938;4.624;2023-08-01T13:12:36;4.32;;;1.08;;
41631;SDS011;37452;51.938;4.624;2023-08-01T13:15:02;9.52;;;1.50;;
41631;SDS011;37452;51.938;4.624;2023-08-01T13:17:29;6.18;;;1.15;;
41631;SDS011;37452;51.938;4.624;2023-08-01T13:19:55;5.43;;;1.33;;
41631;SDS011;37452;51.938;4.624;2023-08-01T13:22:20;7.53;;;1.23;;
41631;SDS011;37452;51.938;4.624;2023-08-01T13:24:45;9.65;;;1.50;;
41631;SDS011;37452;51.938;4.624;2023-08-01T13:27:12;7.68;;;1.27;;
41631;SDS011;37452;51.938;4.624;2023-08-01T13:29:37;4.63;;;1.10;;
41631;SDS011;37452;51.938;4.624;2023-08-01T13:32:04;4.72;;;1.20;;
41631;SDS011;37452;51.938;4.624;2023-08-01T13:34:30;8.77;;;1.60;;
41631;SDS011;37452;51.938;4.624;2023-08-01T13:36:56;8.93;;;1.33;;
41631;SDS011;37452;51.938;4.624;2023-08-01T13:39:21;5.43;;;2.05;;
41631;SDS011;37452;51.938;4.624;2023-08-01T13:41:47;8.80;;;1.63;;
41631;SDS011;37452;51.938;4.624;2023-08-01T13:44:12;9.10;;;1.60;;
41631;SDS011;37452;51.938;4.624;2023-08-01T13:46:37;6.55;;;1.33;;
41631;SDS011;37452;51.938;4.624;2023-08-01T13:49:03;9.82;;;1.67;;
41631;SDS011;37452;51.938;4.624;2023-08-01T13:51:30;9.75;;;1.30;;
41631;SDS011;37452;51.938;4.624;2023-08-01T13:53:57;4.75;;;1.63;;
41631;SDS011;37452;51.938;4.624;2023-08-01T13:56:24;4.40;;;1.20;;
41631;SDS011;37452;51.938;4.624;2023-08-01T13:58:50;6.20;;;1.35;;
41631;SDS011;37452;51.938;4.624;2023-08-01T14:01:16;8.18;;;1.17;;
41631;SDS011;37452;51.938;4.624;2023-08-01T14:03:43;8.55;;;1.30;;
41631;SDS011;37452;51.938;4.624;2023-08-01T14:06:10;8.73;;;1.98;;
41631;SDS011;37452;51.938;4.624;2023-08-01T14:08:37;3.45;;;1.15;;
41631;SDS011;37452;51.938;4.624;2023-08-01T14:11:03;8.15;;;2.00;;
41631;SDS011;37452;51.938;4.624;2023-08-01T14:13:30;8.75;;;1.30;;
41631;SDS011;37452;51.938;4.624;2023-08-01T14:15:55;3.67;;;1.05;;
41631;SDS011;37452;51.938;4.624;2023-08-01T14:18:21;6.97;;;1.80;;
41631;SDS011;37452;51.938;4.624;2023-08-01T14:20:46;7.00;;;1.00;;
41631;SDS011;37452;51.938;4.624;2023-08-01T14:23:11;7.45;;;1.45;;
41631;SDS011;37452;51.938;4.624;2023-08-01T14:25:37;4.45;;;1.42;;
41631;SDS011;37452;51.938;4.624;2023-08-01T14:28:03;5.47;;;1.15;;
41631;SDS011;37452;51.938;4.624;2023-08-01T14:30:28;3.50;;;1.02;;
41631;SDS011;37452;51.938;4.624;2023-08-01T14:33:03;5.28;;;2.10;;
41631;SDS011;37452;51.938;4.624;2023-08-01T14:35:30;9.75;;;1.30;;
41631;SDS011;37452;51.938;4.624;2023-08-01T14:37:56;7.97;;;1.67;;
41631;SDS011;37452;51.938;4.624;2023-08-01T14:40:21;7.53;;;1.23;;